sensor_id;sensor_type;location;lat;lon;timestamp;temperature;humidity
4701;DHT22;8724;51.272;6.554;2023-02-28T00:01:29;6.30;99.90
4701;DHT22;8724;51.272;6.554;2023-02-28T00:03:57;6.30;99.90
4701;DHT22;8724;51.272;6.554;2023-02-28T00:06:26;6.30;99.90
4701;DHT22;8724;51.272;6.554;2023-02-28T00:08:55;6.30;99.90
4701;DHT22;8724;51.272;6.554;2023-02-28T00:11:23;6.30;99.90
4701;DHT22;8724;51.272;6.554;2023-02-28T00:13:52;6.20;99.90
4701;DHT22;8724;51.272;6.554;2023-02-28T00:16:22;6.20;99.90
4701;DHT22;8724;51.272;6.554;2023-02-28T00:18:51;6.20;99.90
4701;DHT22;8724;51.272;6.554;2023-02-28T00:21:20;6.20;99.90
4701;DHT22;8724;51.272;6.554;2023-02-28T00:23:48;6.20;99.90
4701;DHT22;8724;51.272;6.554;2023-02-28T00:26:16;6.20;99.90
4701;DHT22;8724;51.272;6.554;2023-02-28T00:28:48;6.20;99.90
4701;DHT22;8724;51.272;6.554;2023-02-28T00:31:17;6.20;99.90
4701;DHT22;8724;51.272;6.554;2023-02-28T00:33:49;6.20;99.90
4701;DHT22;8724;51.272;6.554;2023-02-28T00:36:20;6.20;99.90
4701;DHT22;8724;51.272;6.554;2023-02-28T00:38:48;6.10;99.90
4701;DHT22;8724;51.272;6.554;2023-02-28T00:41:17;6.10;99.90
4701;DHT22;8724;51.272;6.554;2023-02-28T00:43:47;6.10;99.90
4701;DHT22;8724;51.272;6.554;2023-02-28T00:46:15;6.10;99.90
4701;DHT22;8724;51.272;6.554;2023-02-28T00:48:44;6.10;99.90
4701;DHT22;8724;51.272;6.554;2023-02-28T00:51:13;6.10;99.90
4701;DHT22;8724;51.272;6.554;2023-02-28T00:53:41;6.10;99.90
4701;DHT22;8724;51.272;6.554;2023-02-28T00:56:10;6.10;99.90
4701;DHT22;8724;51.272;6.554;2023-02-28T00:58:38;6.10;99.90
4701;DHT22;8724;51.272;6.554;2023-02-28T01:01:06;6.10;99.90
4701;DHT22;8724;51.272;6.554;2023-02-28T01:03:37;6.10;99.90
4701;DHT22;8724;51.272;6.554;2023-02-28T01:06:06;6.00;99.90
4701;DHT22;8724;51.272;6.554;2023-02-28T01:08:36;6.00;99.90
4701;DHT22;8724;51.272;6.554;2023-02-28T01:11:08;6.00;99.90
4701;DHT22;8724;51.272;6.554;2023-02-28T01:13:40;6.00;99.90
4701;DHT22;8724;51.272;6.554;2023-02-28T01:16:08;6.00;99.90
4701;DHT22;8724;51.272;6.554;2023-02-28T01:18:37;6.00;99.90
4701;DHT22;8724;51.272;6.554;2023-02-28T01:21:08;6.00;99.90
4701;DHT22;8724;51.272;6.554;2023-02-28T01:23:40;6.00;99.90
4701;DHT22;8724;51.272;6.554;2023-02-28T01:26:12;6.00;99.90
4701;DHT22;8724;51.272;6.554;2023-02-28T01:28:41;5.90;99.90
4701;DHT22;8724;51.272;6.554;2023-02-28T01:31:10;6.00;99.90
4701;DHT22;8724;51.272;6.554;2023-02-28T01:33:39;6.00;99.90
4701;DHT22;8724;51.272;6.554;2023-02-28T01:36:10;5.90;99.90
4701;DHT22;8724;51.272;6.554;2023-02-28T01:38:40;6.00;99.90
4701;DHT22;8724;51.272;6.554;2023-02-28T01:41:12;5.90;99.90
4701;DHT22;8724;51.272;6.554;2023-02-28T01:44:00;5.90;99.90
4701;DHT22;8724;51.272;6.554;2023-02-28T01:46:33;5.90;99.90
4701;DHT22;8724;51.272;6.554;2023-02-28T01:49:06;5.90;99.90
4701;DHT22;8724;51.272;6.554;2023-02-28T01:51:39;5.90;99.90
4701;DHT22;8724;51.272;6.554;2023-02-28T01:54:16;5.90;99.90
4701;DHT22;8724;51.272;6.554;2023-02-28T01:56:49;5.90;99.90
4701;DHT22;8724;51.272;6.554;2023-02-28T01:59:22;5.90;99.90
4701;DHT22;8724;51.272;6.554;2023-02-28T02:01:55;5.80;99.90
4701;DHT22;8724;51.272;6.554;2023-02-28T02:04:25;5.90;99.90
4701;DHT22;8724;51.272;6.554;2023-02-28T02:06:54;5.80;99.90
4701;DHT22;8724;51.272;6.554;2023-02-28T02:09:24;5.90;99.90
4701;DHT22;8724;51.272;6.554;2023-02-28T02:11:55;5.80;99.90
4701;DHT22;8724;51.272;6.554;2023-02-28T02:14:47;5.80;99.90
4701;DHT22;8724;51.272;6.554;2023-02-28T02:17:26;5.80;99.90
4701;DHT22;8724;51.272;6.554;2023-02-28T02:20:30;5.80;99.90
4701;DHT22;8724;51.272;6.554;2023-02-28T02:23:28;5.80;99.90
4701;DHT22;8724;51.272;6.554;2023-02-28T02:26:17;5.80;99.90
4701;DHT22;8724;51.272;6.554;2023-02-28T02:29:00;5.80;99.90
4701;DHT22;8724;51.272;6.554;2023-02-28T02:32:04;5.80;99.90
4701;DHT22;8724;51.272;6.554;2023-02-28T02:34:43;5.80;99.90
4701;DHT22;8724;51.272;6.554;2023-02-28T02:40:07;5.80;99.90
4701;DHT22;8724;51.272;6.554;2023-02-28T02:42:41;5.80;99.90
4701;DHT22;8724;51.272;6.554;2023-02-28T02:45:16;5.80;99.90
4701;DHT22;8724;51.272;6.554;2023-02-28T02:47:46;5.70;99.90
4701;DHT22;8724;51.272;6.554;2023-02-28T02:50:21;5.70;99.90
4701;DHT22;8724;51.272;6.554;2023-02-28T02:52:54;5.70;99.90
4701;DHT22;8724;51.272;6.554;2023-02-28T02:55:25;5.70;99.90
4701;DHT22;8724;51.272;6.554;2023-02-28T02:57:57;5.70;99.90
4701;DHT22;8724;51.272;6.554;2023-02-28T03:00:31;5.70;99.90
4701;DHT22;8724;51.272;6.554;2023-02-28T03:03:02;5.70;99.90
4701;DHT22;8724;51.272;6.554;2023-02-28T03:05:39;5.70;99.90
4701;DHT22;8724;51.272;6.554;2023-02-28T03:08:09;5.60;99.90
4701;DHT22;8724;51.272;6.554;2023-02-28T03:10:40;5.60;99.90
4701;DHT22;8724;51.272;6.554;2023-02-28T03:16:47;5.60;99.90
4701;DHT22;8724;51.272;6.554;2023-02-28T03:19:37;5.60;99.90
4701;DHT22;8724;51.272;6.554;2023-02-28T03:22:14;5.60;99.90
4701;DHT22;8724;51.272;6.554;2023-02-28T03:24:50;5.50;99.90
4701;DHT22;8724;51.272;6.554;2023-02-28T03:27:24;5.80;99.90
4701;DHT22;8724;51.272;6.554;2023-02-28T03:29:59;5.50;99.90
4701;DHT22;8724;51.272;6.554;2023-02-28T03:32:33;5.50;99.90
4701;DHT22;8724;51.272;6.554;2023-02-28T03:35:07;5.50;99.90
4701;DHT22;8724;51.272;6.554;2023-02-28T03:37:41;5.50;99.90
4701;DHT22;8724;51.272;6.554;2023-02-28T03:40:14;5.40;99.90
4701;DHT22;8724;51.272;6.554;2023-02-28T03:42:47;5.40;99.90
4701;DHT22;8724;51.272;6.554;2023-02-28T03:45:19;5.50;99.90
4701;DHT22;8724;51.272;6.554;2023-02-28T03:47:52;5.40;99.90
4701;DHT22;8724;51.272;6.554;2023-02-28T03:50:24;5.40;99.90
4701;DHT22;8724;51.272;6.554;2023-02-28T03:52:58;5.40;99.90
4701;DHT22;8724;51.272;6.554;2023-02-28T03:55:34;5.40;99.90
4701;DHT22;8724;51.272;6.554;2023-02-28T03:58:12;5.40;99.90
4701;DHT22;8724;51.272;6.554;2023-02-28T04:00:46;5.40;99.90
4701;DHT22;8724;51.272;6.554;2023-02-28T04:03:15;5.30;99.90
4701;DHT22;8724;51.272;6.554;2023-02-28T04:05:48;5.40;99.90
4701;DHT22;8724;51.272;6.554;2023-02-28T04:08:20;5.30;99.90
4701;DHT22;8724;51.272;6.554;2023-02-28T04:10:52;5.30;99.90
4701;DHT22;8724;51.272;6.554;2023-02-28T04:13:22;5.30;99.90
4701;DHT22;8724;51.272;6.554;2023-02-28T04:15:50;5.30;99.90
4701;DHT22;8724;51.272;6.554;2023-02-28T04:18:19;5.30;99.90
4701;DHT22;8724;51.272;6.554;2023-02-28T04:20:47;5.30;99.90
4701;DHT22;8724;51.272;6.554;2023-02-28T04:23:16;5.30;99.90
4701;DHT22;8724;51.272;6.554;2023-02-28T04:25:46;5.30;99.90
4701;DHT22;8724;51.272;6.554;2023-02-28T04:28:14;5.30;99.90
4701;DHT22;8724;51.272;6.554;2023-02-28T04:30:42;5.30;99.90
4701;DHT22;8724;51.272;6.554;2023-02-28T04:33:11;5.30;99.90
4701;DHT22;8724;51.272;6.554;2023-02-28T04:35:39;5.30;99.90
4701;DHT22;8724;51.272;6.554;2023-02-28T04:38:08;5.30;99.90
4701;DHT22;8724;51.272;6.554;2023-02-28T04:40:36;5.30;99.90
4701;DHT22;8724;51.272;6.554;2023-02-28T04:43:06;5.30;99.90
4701;DHT22;8724;51.272;6.554;2023-02-28T04:45:35;5.30;99.90
4701;DHT22;8724;51.272;6.554;2023-02-28T04:48:03;5.30;99.90
4701;DHT22;8724;51.272;6.554;2023-02-28T04:50:32;5.30;99.90
4701;DHT22;8724;51.272;6.554;2023-02-28T04:53:01;5.20;99.90
4701;DHT22;8724;51.272;6.554;2023-02-28T04:55:29;5.20;99.90
4701;DHT22;8724;51.272;6.554;2023-02-28T04:58:00;5.20;99.90
4701;DHT22;8724;51.272;6.554;2023-02-28T05:00:30;5.20;99.90
4701;DHT22;8724;51.272;6.554;2023-02-28T05:02:58;5.20;99.90
4701;DHT22;8724;51.272;6.554;2023-02-28T05:05:27;5.20;99.90
4701;DHT22;8724;51.272;6.554;2023-02-28T05:07:55;5.20;99.90
4701;DHT22;8724;51.272;6.554;2023-02-28T05:10:24;5.20;99.90
4701;DHT22;8724;51.272;6.554;2023-02-28T05:12:52;5.20;99.90
4701;DHT22;8724;51.272;6.554;2023-02-28T05:15:21;5.20;99.90
4701;DHT22;8724;51.272;6.554;2023-02-28T05:17:50;5.20;99.90
4701;DHT22;8724;51.272;6.554;2023-02-28T05:20:19;5.20;99.90
4701;DHT22;8724;51.272;6.554;2023-02-28T05:22:47;5.10;99.90
4701;DHT22;8724;51.272;6.554;2023-02-28T05:25:19;5.20;99.90
4701;DHT22;8724;51.272;6.554;2023-02-28T05:27:48;5.20;99.90
4701;DHT22;8724;51.272;6.554;2023-02-28T05:30:18;5.20;99.90
4701;DHT22;8724;51.272;6.554;2023-02-28T05:32:51;5.20;99.90
4701;DHT22;8724;51.272;6.554;2023-02-28T05:35:19;5.10;99.90
4701;DHT22;8724;51.272;6.554;2023-02-28T05:37:47;5.10;99.90
4701;DHT22;8724;51.272;6.554;2023-02-28T05:40:16;5.10;99.90
4701;DHT22;8724;51.272;6.554;2023-02-28T05:42:46;5.10;99.90
4701;DHT22;8724;51.272;6.554;2023-02-28T05:45:15;5.10;99.90
4701;DHT22;8724;51.272;6.554;2023-02-28T05:47:43;5.10;99.90
4701;DHT22;8724;51.272;6.554;2023-02-28T05:50:13;5.00;99.90
4701;DHT22;8724;51.272;6.554;2023-02-28T05:52:42;5.00;99.90
4701;DHT22;8724;51.272;6.554;2023-02-28T05:55:10;5.00;99.90
4701;DHT22;8724;51.272;6.554;2023-02-28T05:57:38;5.00;99.90
4701;DHT22;8724;51.272;6.554;2023-02-28T06:00:08;5.00;99.90
4701;DHT22;8724;51.272;6.554;2023-02-28T06:02:39;5.00;99.90
4701;DHT22;8724;51.272;6.554;2023-02-28T06:05:15;5.00;99.90
4701;DHT22;8724;51.272;6.554;2023-02-28T06:07:44;5.00;99.90
4701;DHT22;8724;51.272;6.554;2023-02-28T06:10:13;5.00;99.90
4701;DHT22;8724;51.272;6.554;2023-02-28T06:12:42;5.20;99.90
4701;DHT22;8724;51.272;6.554;2023-02-28T06:15:12;5.00;99.90
4701;DHT22;8724;51.272;6.554;2023-02-28T06:17:42;4.90;99.90
4701;DHT22;8724;51.272;6.554;2023-02-28T06:20:11;4.90;99.90
4701;DHT22;8724;51.272;6.554;2023-02-28T06:22:42;4.90;99.90
4701;DHT22;8724;51.272;6.554;2023-02-28T06:25:10;5.30;99.90
4701;DHT22;8724;51.272;6.554;2023-02-28T06:27:39;5.00;99.90
4701;DHT22;8724;51.272;6.554;2023-02-28T06:30:09;4.90;99.90
4701;DHT22;8724;51.272;6.554;2023-02-28T06:32:37;4.90;99.90
4701;DHT22;8724;51.272;6.554;2023-02-28T06:35:06;4.90;99.90
4701;DHT22;8724;51.272;6.554;2023-02-28T06:37:35;4.90;99.90
4701;DHT22;8724;51.272;6.554;2023-02-28T06:40:09;4.90;99.90
4701;DHT22;8724;51.272;6.554;2023-02-28T06:42:37;4.90;99.90
4701;DHT22;8724;51.272;6.554;2023-02-28T06:45:07;4.90;99.90
4701;DHT22;8724;51.272;6.554;2023-02-28T06:47:37;4.90;99.90
4701;DHT22;8724;51.272;6.554;2023-02-28T06:50:07;4.90;99.90
4701;DHT22;8724;51.272;6.554;2023-02-28T06:52:36;4.90;99.90
4701;DHT22;8724;51.272;6.554;2023-02-28T06:55:07;4.90;99.90
4701;DHT22;8724;51.272;6.554;2023-02-28T06:57:36;4.90;99.90
4701;DHT22;8724;51.272;6.554;2023-02-28T07:00:08;4.90;99.90
4701;DHT22;8724;51.272;6.554;2023-02-28T07:02:37;4.90;99.90
4701;DHT22;8724;51.272;6.554;2023-02-28T07:05:06;4.90;99.90
4701;DHT22;8724;51.272;6.554;2023-02-28T07:07:34;4.90;99.90
4701;DHT22;8724;51.272;6.554;2023-02-28T07:10:07;4.90;99.90
4701;DHT22;8724;51.272;6.554;2023-02-28T07:12:36;4.90;99.90
4701;DHT22;8724;51.272;6.554;2023-02-28T07:15:06;4.90;99.90
4701;DHT22;8724;51.272;6.554;2023-02-28T07:17:35;5.00;99.90
4701;DHT22;8724;51.272;6.554;2023-02-28T07:20:03;4.90;99.90
4701;DHT22;8724;51.272;6.554;2023-02-28T07:22:32;5.00;99.90
4701;DHT22;8724;51.272;6.554;2023-02-28T07:25:01;5.00;99.90
4701;DHT22;8724;51.272;6.554;2023-02-28T07:27:30;5.00;99.90
4701;DHT22;8724;51.272;6.554;2023-02-28T07:30:02;5.00;99.90
4701;DHT22;8724;51.272;6.554;2023-02-28T07:32:30;5.00;99.90
4701;DHT22;8724;51.272;6.554;2023-02-28T07:34:59;5.00;99.90
4701;DHT22;8724;51.272;6.554;2023-02-28T07:37:27;5.00;99.90
4701;DHT22;8724;51.272;6.554;2023-02-28T07:39:58;5.00;99.90
4701;DHT22;8724;51.272;6.554;2023-02-28T07:42:26;5.20;99.90
4701;DHT22;8724;51.272;6.554;2023-02-28T07:44:56;5.30;99.90
4701;DHT22;8724;51.272;6.554;2023-02-28T07:47:25;5.00;99.90
4701;DHT22;8724;51.272;6.554;2023-02-28T07:49:54;5.00;99.90
4701;DHT22;8724;51.272;6.554;2023-02-28T07:52:22;5.00;99.90
4701;DHT22;8724;51.272;6.554;2023-02-28T07:54:51;5.10;99.90
4701;DHT22;8724;51.272;6.554;2023-02-28T07:57:19;5.10;99.90
4701;DHT22;8724;51.272;6.554;2023-02-28T07:59:48;5.10;99.90
4701;DHT22;8724;51.272;6.554;2023-02-28T08:02:18;5.10;99.90
4701;DHT22;8724;51.272;6.554;2023-02-28T08:04:47;5.10;99.90
4701;DHT22;8724;51.272;6.554;2023-02-28T08:07:17;5.10;99.90
4701;DHT22;8724;51.272;6.554;2023-02-28T08:09:45;5.10;99.90
4701;DHT22;8724;51.272;6.554;2023-02-28T08:12:14;5.10;99.90
4701;DHT22;8724;51.272;6.554;2023-02-28T08:14:42;5.20;99.90
4701;DHT22;8724;51.272;6.554;2023-02-28T08:17:11;5.20;99.90
4701;DHT22;8724;51.272;6.554;2023-02-28T08:19:41;5.20;99.90
4701;DHT22;8724;51.272;6.554;2023-02-28T08:22:09;5.20;99.90
4701;DHT22;8724;51.272;6.554;2023-02-28T08:24:38;5.20;99.90
4701;DHT22;8724;51.272;6.554;2023-02-28T08:27:06;5.30;99.90
4701;DHT22;8724;51.272;6.554;2023-02-28T08:29:38;5.30;99.90
4701;DHT22;8724;51.272;6.554;2023-02-28T08:32:07;5.30;99.90
4701;DHT22;8724;51.272;6.554;2023-02-28T08:34:56;5.30;99.90
4701;DHT22;8724;51.272;6.554;2023-02-28T08:37:24;5.40;99.90
4701;DHT22;8724;51.272;6.554;2023-02-28T08:39:53;5.40;99.90
4701;DHT22;8724;51.272;6.554;2023-02-28T08:42:22;5.40;99.90
4701;DHT22;8724;51.272;6.554;2023-02-28T08:44:51;5.40;99.90
4701;DHT22;8724;51.272;6.554;2023-02-28T08:47:19;5.40;99.90
4701;DHT22;8724;51.272;6.554;2023-02-28T08:49:47;5.40;99.90
4701;DHT22;8724;51.272;6.554;2023-02-28T08:52:17;5.40;99.90
4701;DHT22;8724;51.272;6.554;2023-02-28T08:54:45;5.50;99.90
4701;DHT22;8724;51.272;6.554;2023-02-28T08:57:14;5.50;99.90
4701;DHT22;8724;51.272;6.554;2023-02-28T08:59:42;5.50;99.90
4701;DHT22;8724;51.272;6.554;2023-02-28T09:02:12;5.60;99.90
4701;DHT22;8724;51.272;6.554;2023-02-28T09:04:41;5.60;99.90
4701;DHT22;8724;51.272;6.554;2023-02-28T09:07:12;5.60;99.90
4701;DHT22;8724;51.272;6.554;2023-02-28T09:09:42;5.30;99.90
4701;DHT22;8724;51.272;6.554;2023-02-28T09:12:21;5.60;99.90
4701;DHT22;8724;51.272;6.554;2023-02-28T09:14:50;5.80;99.90
4701;DHT22;8724;51.272;6.554;2023-02-28T09:17:19;5.70;99.90
4701;DHT22;8724;51.272;6.554;2023-02-28T09:19:47;5.80;99.90
4701;DHT22;8724;51.272;6.554;2023-02-28T09:22:16;5.80;99.90
4701;DHT22;8724;51.272;6.554;2023-02-28T09:24:46;5.80;99.90
4701;DHT22;8724;51.272;6.554;2023-02-28T09:27:14;5.80;99.90
4701;DHT22;8724;51.272;6.554;2023-02-28T09:29:42;6.00;99.90
4701;DHT22;8724;51.272;6.554;2023-02-28T09:32:11;5.80;99.90
4701;DHT22;8724;51.272;6.554;2023-02-28T09:34:40;5.80;99.90
4701;DHT22;8724;51.272;6.554;2023-02-28T09:37:08;5.90;99.90
4701;DHT22;8724;51.272;6.554;2023-02-28T09:39:36;5.90;99.90
4701;DHT22;8724;51.272;6.554;2023-02-28T09:42:14;5.90;99.90
4701;DHT22;8724;51.272;6.554;2023-02-28T09:44:49;5.90;99.90
4701;DHT22;8724;51.272;6.554;2023-02-28T09:47:24;5.90;99.90
4701;DHT22;8724;51.272;6.554;2023-02-28T09:49:55;6.00;99.90
4701;DHT22;8724;51.272;6.554;2023-02-28T09:52:28;5.90;99.90
4701;DHT22;8724;51.272;6.554;2023-02-28T09:55:01;6.00;99.90
4701;DHT22;8724;51.272;6.554;2023-02-28T09:57:39;6.00;99.90
4701;DHT22;8724;51.272;6.554;2023-02-28T10:00:14;6.00;99.90
4701;DHT22;8724;51.272;6.554;2023-02-28T10:03:03;6.00;99.90
4701;DHT22;8724;51.272;6.554;2023-02-28T10:05:36;6.00;99.90
4701;DHT22;8724;51.272;6.554;2023-02-28T10:08:13;6.00;99.90
4701;DHT22;8724;51.272;6.554;2023-02-28T10:10:44;6.00;99.90
4701;DHT22;8724;51.272;6.554;2023-02-28T10:13:20;6.00;99.90
4701;DHT22;8724;51.272;6.554;2023-02-28T10:15:54;6.00;99.90
4701;DHT22;8724;51.272;6.554;2023-02-28T10:18:26;6.10;99.90
4701;DHT22;8724;51.272;6.554;2023-02-28T10:20:57;6.10;99.90
4701;DHT22;8724;51.272;6.554;2023-02-28T10:23:31;6.20;99.90
4701;DHT22;8724;51.272;6.554;2023-02-28T10:26:09;6.20;99.90
4701;DHT22;8724;51.272;6.554;2023-02-28T10:28:40;6.20;99.90
4701;DHT22;8724;51.272;6.554;2023-02-28T10:31:11;6.30;99.90
4701;DHT22;8724;51.272;6.554;2023-02-28T10:33:43;6.30;99.90
4701;DHT22;8724;51.272;6.554;2023-02-28T10:36:14;6.30;99.90
4701;DHT22;8724;51.272;6.554;2023-02-28T10:38:45;6.30;99.90
4701;DHT22;8724;51.272;6.554;2023-02-28T10:41:16;6.40;99.90
4701;DHT22;8724;51.272;6.554;2023-02-28T10:43:46;6.40;99.90
4701;DHT22;8724;51.272;6.554;2023-02-28T10:46:16;6.50;99.90
4701;DHT22;8724;51.272;6.554;2023-02-28T10:49:03;6.50;99.90
4701;DHT22;8724;51.272;6.554;2023-02-28T10:51:36;6.60;99.30
4701;DHT22;8724;51.272;6.554;2023-02-28T10:54:06;6.40;98.80
4701;DHT22;8724;51.272;6.554;2023-02-28T10:56:42;6.40;99.00
4701;DHT22;8724;51.272;6.554;2023-02-28T10:59:28;6.40;98.90
4701;DHT22;8724;51.272;6.554;2023-02-28T11:01:57;6.40;98.80
4701;DHT22;8724;51.272;6.554;2023-02-28T11:04:34;6.40;98.90
4701;DHT22;8724;51.272;6.554;2023-02-28T11:07:09;6.40;98.50
4701;DHT22;8724;51.272;6.554;2023-02-28T11:09:46;6.40;98.30
4701;DHT22;8724;51.272;6.554;2023-02-28T11:12:24;6.40;98.50
4701;DHT22;8724;51.272;6.554;2023-02-28T11:14:58;6.40;98.60
4701;DHT22;8724;51.272;6.554;2023-02-28T11:17:30;6.40;98.30
4701;DHT22;8724;51.272;6.554;2023-02-28T11:20:02;6.50;98.40
4701;DHT22;8724;51.272;6.554;2023-02-28T11:22:37;6.50;98.70
4701;DHT22;8724;51.272;6.554;2023-02-28T11:25:09;6.50;98.60
4701;DHT22;8724;51.272;6.554;2023-02-28T11:27:47;6.50;98.40
4701;DHT22;8724;51.272;6.554;2023-02-28T11:30:33;6.50;98.40
4701;DHT22;8724;51.272;6.554;2023-02-28T11:33:20;6.50;98.20
4701;DHT22;8724;51.272;6.554;2023-02-28T11:35:50;6.50;97.70
4701;DHT22;8724;51.272;6.554;2023-02-28T11:38:19;6.70;98.10
4701;DHT22;8724;51.272;6.554;2023-02-28T11:40:54;6.60;97.90
4701;DHT22;8724;51.272;6.554;2023-02-28T11:43:39;6.50;97.80
4701;DHT22;8724;51.272;6.554;2023-02-28T11:46:20;6.60;98.00
4701;DHT22;8724;51.272;6.554;2023-02-28T11:48:58;6.60;98.00
4701;DHT22;8724;51.272;6.554;2023-02-28T11:51:33;6.60;98.00
4701;DHT22;8724;51.272;6.554;2023-02-28T11:54:16;6.60;98.20
4701;DHT22;8724;51.272;6.554;2023-02-28T11:56:53;6.60;98.50
4701;DHT22;8724;51.272;6.554;2023-02-28T11:59:45;6.60;98.40
4701;DHT22;8724;51.272;6.554;2023-02-28T12:02:24;6.70;98.10
4701;DHT22;8724;51.272;6.554;2023-02-28T12:05:09;6.70;98.10
4701;DHT22;8724;51.272;6.554;2023-02-28T12:07:46;6.70;98.20
4701;DHT22;8724;51.272;6.554;2023-02-28T12:10:21;6.70;98.40
4701;DHT22;8724;51.272;6.554;2023-02-28T12:13:06;6.70;98.50
4701;DHT22;8724;51.272;6.554;2023-02-28T12:15:54;6.80;98.00
4701;DHT22;8724;51.272;6.554;2023-02-28T12:18:41;6.80;98.20
4701;DHT22;8724;51.272;6.554;2023-02-28T12:21:20;6.80;98.40
4701;DHT22;8724;51.272;6.554;2023-02-28T12:24:05;6.90;98.30
4701;DHT22;8724;51.272;6.554;2023-02-28T12:26:37;6.90;98.10
4701;DHT22;8724;51.272;6.554;2023-02-28T12:29:12;6.90;98.00
4701;DHT22;8724;51.272;6.554;2023-02-28T12:31:47;6.90;98.00
4701;DHT22;8724;51.272;6.554;2023-02-28T12:34:22;7.00;97.90
4701;DHT22;8724;51.272;6.554;2023-02-28T12:36:54;7.00;98.10
4701;DHT22;8724;51.272;6.554;2023-02-28T12:39:26;7.00;98.10
4701;DHT22;8724;51.272;6.554;2023-02-28T12:42:09;7.00;98.00
4701;DHT22;8724;51.272;6.554;2023-02-28T12:44:45;7.10;98.00
4701;DHT22;8724;51.272;6.554;2023-02-28T12:47:18;7.10;98.20
4701;DHT22;8724;51.272;6.554;2023-02-28T12:49:51;7.10;98.20
4701;DHT22;8724;51.272;6.554;2023-02-28T12:52:25;7.20;98.40
4701;DHT22;8724;51.272;6.554;2023-02-28T12:55:02;7.20;98.30
4701;DHT22;8724;51.272;6.554;2023-02-28T12:57:36;7.20;97.80
4701;DHT22;8724;51.272;6.554;2023-02-28T13:00:12;7.30;97.70
4701;DHT22;8724;51.272;6.554;2023-02-28T13:03:17;7.30;97.80
4701;DHT22;8724;51.272;6.554;2023-02-28T13:06:18;7.30;97.40
4701;DHT22;8724;51.272;6.554;2023-02-28T13:09:01;7.30;97.30
4701;DHT22;8724;51.272;6.554;2023-02-28T13:11:32;7.40;97.50
4701;DHT22;8724;51.272;6.554;2023-02-28T13:14:03;7.40;97.50
4701;DHT22;8724;51.272;6.554;2023-02-28T13:16:56;7.40;97.50
4701;DHT22;8724;51.272;6.554;2023-02-28T13:19:26;7.50;97.30
4701;DHT22;8724;51.272;6.554;2023-02-28T13:21:58;7.50;97.10
4701;DHT22;8724;51.272;6.554;2023-02-28T13:24:40;7.50;97.20
4701;DHT22;8724;51.272;6.554;2023-02-28T13:27:23;7.50;97.10
4701;DHT22;8724;51.272;6.554;2023-02-28T13:29:53;7.50;97.10
4701;DHT22;8724;51.272;6.554;2023-02-28T13:32:39;7.60;97.30
4701;DHT22;8724;51.272;6.554;2023-02-28T13:35:42;7.60;97.50
4701;DHT22;8724;51.272;6.554;2023-02-28T13:38:35;7.70;97.80
4701;DHT22;8724;51.272;6.554;2023-02-28T13:44:11;7.70;97.40
4701;DHT22;8724;51.272;6.554;2023-02-28T13:47:19;7.70;97.00
4701;DHT22;8724;51.272;6.554;2023-02-28T13:49:50;7.70;96.40
4701;DHT22;8724;51.272;6.554;2023-02-28T13:52:22;7.70;96.50
4701;DHT22;8724;51.272;6.554;2023-02-28T13:54:58;7.70;96.70
4701;DHT22;8724;51.272;6.554;2023-02-28T13:57:44;7.70;96.20
4701;DHT22;8724;51.272;6.554;2023-02-28T14:00:23;7.70;96.40
4701;DHT22;8724;51.272;6.554;2023-02-28T14:03:11;7.70;96.60
4701;DHT22;8724;51.272;6.554;2023-02-28T14:05:43;7.70;96.60
4701;DHT22;8724;51.272;6.554;2023-02-28T14:08:15;7.80;96.60
4701;DHT22;8724;51.272;6.554;2023-02-28T14:10:48;7.80;96.70
4701;DHT22;8724;51.272;6.554;2023-02-28T14:13:37;7.80;96.60
4701;DHT22;8724;51.272;6.554;2023-02-28T14:16:13;7.80;96.80
4701;DHT22;8724;51.272;6.554;2023-02-28T14:18:49;7.80;96.80
4701;DHT22;8724;51.272;6.554;2023-02-28T14:21:22;7.90;96.90
4701;DHT22;8724;51.272;6.554;2023-02-28T14:33:20;8.00;96.50
4701;DHT22;8724;51.272;6.554;2023-02-28T14:36:04;8.00;96.70
4701;DHT22;8724;51.272;6.554;2023-02-28T14:38:37;8.10;96.70
4701;DHT22;8724;51.272;6.554;2023-02-28T14:41:16;8.10;96.70
4701;DHT22;8724;51.272;6.554;2023-02-28T14:43:54;8.10;96.70
4701;DHT22;8724;51.272;6.554;2023-02-28T14:46:26;8.10;96.60
4701;DHT22;8724;51.272;6.554;2023-02-28T14:48:57;8.10;96.50
4701;DHT22;8724;51.272;6.554;2023-02-28T14:51:25;8.10;96.60
4701;DHT22;8724;51.272;6.554;2023-02-28T14:53:58;8.20;96.50
4701;DHT22;8724;51.272;6.554;2023-02-28T14:56:30;8.10;96.20
4701;DHT22;8724;51.272;6.554;2023-02-28T14:59:02;8.10;96.00
4701;DHT22;8724;51.272;6.554;2023-02-28T15:01:31;8.10;95.90
4701;DHT22;8724;51.272;6.554;2023-02-28T15:04:02;8.10;95.90
4701;DHT22;8724;51.272;6.554;2023-02-28T15:06:32;8.10;96.10
4701;DHT22;8724;51.272;6.554;2023-02-28T15:09:08;8.20;96.40
4701;DHT22;8724;51.272;6.554;2023-02-28T15:11:38;8.20;96.50
4701;DHT22;8724;51.272;6.554;2023-02-28T15:14:15;8.20;96.70
4701;DHT22;8724;51.272;6.554;2023-02-28T15:16:46;8.20;96.70
4701;DHT22;8724;51.272;6.554;2023-02-28T15:19:20;8.20;96.70
4701;DHT22;8724;51.272;6.554;2023-02-28T15:21:53;8.20;96.60
4701;DHT22;8724;51.272;6.554;2023-02-28T15:24:30;8.20;96.50
4701;DHT22;8724;51.272;6.554;2023-02-28T15:27:02;8.20;96.40
4701;DHT22;8724;51.272;6.554;2023-02-28T15:29:37;8.30;96.50
4701;DHT22;8724;51.272;6.554;2023-02-28T15:32:23;8.30;96.50
4701;DHT22;8724;51.272;6.554;2023-02-28T15:34:52;8.30;96.40
4701;DHT22;8724;51.272;6.554;2023-02-28T15:37:30;8.30;96.40
4701;DHT22;8724;51.272;6.554;2023-02-28T15:40:10;8.30;96.40
4701;DHT22;8724;51.272;6.554;2023-02-28T15:42:40;8.30;96.60
4701;DHT22;8724;51.272;6.554;2023-02-28T15:45:37;8.50;96.80
4701;DHT22;8724;51.272;6.554;2023-02-28T15:48:20;8.40;96.90
4701;DHT22;8724;51.272;6.554;2023-02-28T15:50:51;8.40;96.70
4701;DHT22;8724;51.272;6.554;2023-02-28T15:53:23;8.40;96.80
4701;DHT22;8724;51.272;6.554;2023-02-28T15:55:59;8.50;97.00
4701;DHT22;8724;51.272;6.554;2023-02-28T15:58:28;8.10;96.70
4701;DHT22;8724;51.272;6.554;2023-02-28T16:01:05;8.40;97.20
4701;DHT22;8724;51.272;6.554;2023-02-28T16:03:44;8.40;97.00
4701;DHT22;8724;51.272;6.554;2023-02-28T16:06:37;8.30;96.90
4701;DHT22;8724;51.272;6.554;2023-02-28T16:09:09;8.30;96.90
4701;DHT22;8724;51.272;6.554;2023-02-28T16:11:40;8.30;97.10
4701;DHT22;8724;51.272;6.554;2023-02-28T16:14:17;8.30;97.20
4701;DHT22;8724;51.272;6.554;2023-02-28T16:16:50;8.30;97.10
4701;DHT22;8724;51.272;6.554;2023-02-28T16:19:22;8.20;97.10
4701;DHT22;8724;51.272;6.554;2023-02-28T16:21:50;8.30;97.10
4701;DHT22;8724;51.272;6.554;2023-02-28T16:24:19;8.30;97.10
4701;DHT22;8724;51.272;6.554;2023-02-28T16:26:48;8.30;97.10
4701;DHT22;8724;51.272;6.554;2023-02-28T16:29:24;8.30;97.30
4701;DHT22;8724;51.272;6.554;2023-02-28T16:31:54;8.30;97.50
4701;DHT22;8724;51.272;6.554;2023-02-28T16:34:23;8.20;97.60
4701;DHT22;8724;51.272;6.554;2023-02-28T16:36:51;8.30;97.80
4701;DHT22;8724;51.272;6.554;2023-02-28T16:39:20;8.20;97.90
4701;DHT22;8724;51.272;6.554;2023-02-28T16:41:50;8.30;98.00
4701;DHT22;8724;51.272;6.554;2023-02-28T16:44:26;8.20;98.00
4701;DHT22;8724;51.272;6.554;2023-02-28T16:46:57;8.30;98.10
4701;DHT22;8724;51.272;6.554;2023-02-28T16:49:27;8.20;98.00
4701;DHT22;8724;51.272;6.554;2023-02-28T16:51:56;8.20;97.90
4701;DHT22;8724;51.272;6.554;2023-02-28T16:54:24;8.20;98.00
4701;DHT22;8724;51.272;6.554;2023-02-28T16:56:53;8.20;98.10
4701;DHT22;8724;51.272;6.554;2023-02-28T16:59:23;8.20;98.10
4701;DHT22;8724;51.272;6.554;2023-02-28T17:01:52;8.20;98.20
4701;DHT22;8724;51.272;6.554;2023-02-28T17:04:22;8.20;98.10
4701;DHT22;8724;51.272;6.554;2023-02-28T17:06:51;8.20;98.20
4701;DHT22;8724;51.272;6.554;2023-02-28T17:09:20;8.20;98.20
4701;DHT22;8724;51.272;6.554;2023-02-28T17:11:56;8.20;98.40
4701;DHT22;8724;51.272;6.554;2023-02-28T17:14:26;8.10;98.50